Time;durP1;ratioP1;P1;durP2;ratioP2;P2;SDS_P1;SDS_P2;PMS_P1;PMS_P2;Temp;Humidity;BMP_temperature;BMP_pressure;BME280_temperature;BME280_humidity;BME280_pressure;Samples;Min_cycle;Max_cycle;Signal;HPM_P1;HPM_P2
2023/05/22 00:01:03;;;;;;;9.13;5.53;;;17.10;99.90;;;17.47;100.00;100737.91;5161689;28;20394;-86
2023/05/22 00:03:36;;;;;;;9.88;5.75;;;17.10;99.90;;;17.47;100.00;100732.66;5163739;28;20038;-86
2023/05/22 00:06:10;;;;;;;9.40;5.63;;;17.10;99.90;;;17.46;100.00;100736.16;5155051;28;20050;-87
2023/05/22 00:08:43;;;;;;;10.60;6.32;;;17.10;99.90;;;17.47;100.00;100731.78;5114089;28;20154;-86
2023/05/22 00:11:15;;;;;;;11.30;6.53;;;17.10;99.90;;;17.45;100.00;100729.13;5125594;28;20079;-87
2023/05/22 00:13:50;;;;;;;10.32;5.80;;;17.10;99.90;;;17.43;100.00;100730.88;5160264;28;20046;-86
2023/05/22 00:16:23;;;;;;;10.30;6.00;;;17.10;99.90;;;17.39;100.00;100730.84;5147009;28;20081;-86
2023/05/22 00:18:56;;;;;;;10.15;5.75;;;17.10;99.90;;;17.36;100.00;100723.81;5130454;28;20060;-86
2023/05/22 00:21:33;;;;;;;10.40;6.15;;;17.00;99.90;;;17.35;100.00;100727.34;5146717;28;20061;-86
2023/05/22 00:24:07;;;;;;;10.82;5.95;;;17.00;99.90;;;17.32;100.00;100727.31;5130705;28;20050;-86
2023/05/22 00:26:40;;;;;;;12.23;6.50;;;17.00;99.90;;;17.29;100.00;100728.19;5162217;28;20046;-86
2023/05/22 00:29:15;;;;;;;11.52;6.78;;;17.00;99.90;;;17.26;100.00;100722.00;5141108;28;20039;-86
2023/05/22 00:31:49;;;;;;;10.70;6.18;;;16.90;99.90;;;17.23;100.00;100725.50;5111725;28;20137;-86
2023/05/22 00:34:21;;;;;;;12.23;6.40;;;16.90;99.90;;;17.21;100.00;100724.59;5161684;28;20092;-87
2023/05/22 00:36:54;;;;;;;11.38;6.80;;;16.90;99.90;;;17.20;100.00;100714.03;5160473;28;20042;-86
2023/05/22 00:39:28;;;;;;;10.45;5.85;;;16.90;99.90;;;17.17;100.00;100712.28;5145208;28;20041;-87
2023/05/22 00:42:01;;;;;;;10.35;5.97;;;16.90;99.90;;;17.15;100.00;100710.50;5142447;28;20048;-86
2023/05/22 00:44:35;;;;;;;11.90;6.43;;;16.80;99.90;;;17.13;100.00;100709.63;5150798;28;20046;-88
2023/05/22 00:47:08;;;;;;;10.27;6.10;;;16.80;99.90;;;17.13;100.00;100720.16;5126569;28;20129;-86
2023/05/22 00:49:43;;;;;;;10.57;6.05;;;16.80;99.90;;;17.08;100.00;100714.84;5133302;28;20093;-87
2023/05/22 00:52:17;;;;;;;10.07;5.93;;;16.80;99.90;;;17.07;100.00;100718.34;5118539;28;20046;-86
2023/05/22 00:54:51;;;;;;;9.85;5.78;;;16.80;99.90;;;17.04;100.00;100719.22;5117951;28;20042;-87
2023/05/22 00:57:24;;;;;;;9.73;5.75;;;16.80;99.90;;;17.03;100.00;100720.09;5134269;28;20145;-86
2023/05/22 00:59:58;;;;;;;11.20;6.38;;;16.70;99.90;;;17.01;100.00;100716.53;5117527;28;20042;-86
2023/05/22 01:02:31;;;;;;;10.93;6.00;;;16.70;99.90;;;17.01;100.00;100719.19;5133717;28;20050;-86
2023/05/22 01:05:06;;;;;;;10.85;5.80;;;16.70;99.90;;;17.01;100.00;100719.19;5133015;28;20053;-86
2023/05/22 01:07:39;;;;;;;10.02;5.55;;;16.70;99.90;;;17.03;100.00;100719.22;5165466;28;20457;-85
2023/05/22 01:10:12;;;;;;;9.85;5.95;;;16.70;99.90;;;17.04;100.00;100713.94;5158306;28;20044;-85
2023/05/22 01:12:57;;;;;;;10.90;6.38;;;16.70;99.90;;;17.08;100.00;100720.09;5133108;28;20634;-85
2023/05/22 01:15:44;;;;;;;12.00;7.38;;;16.70;99.90;;;17.11;100.00;100712.25;5133357;28;20081;-86
2023/05/22 01:18:29;;;;;;;13.27;6.80;;;16.80;99.90;;;17.16;100.00;100720.19;5142899;28;20525;-86
2023/05/22 01:21:10;;;;;;;12.88;7.10;;;16.80;99.90;;;17.17;100.00;100712.28;5117591;28;20034;-86
2023/05/22 01:24:31;;;;;;;12.43;6.68;;;16.80;99.90;;;17.20;100.00;100708.78;5119063;28;20507;-86
2023/05/22 01:27:41;;;;;;;12.57;6.57;;;16.90;99.90;;;17.19;100.00;100714.94;5162781;28;20133;-86
2023/05/22 01:32:57;;;;;;;13.60;7.38;;;16.80;99.90;;;17.14;100.00;100722.78;5152377;28;20134;-70
2023/05/22 01:35:31;;;;;;;12.20;7.28;;;16.80;99.90;;;17.12;100.00;100724.53;5148412;28;20224;-71
2023/05/22 01:38:04;;;;;;;12.95;7.25;;;16.80;99.90;;;17.08;100.00;100726.28;5147945;28;20395;-70
2023/05/22 01:40:37;;;;;;;12.40;7.43;;;16.80;99.90;;;17.05;100.00;100715.72;5164974;28;20475;-71
2023/05/22 01:43:09;;;;;;;13.00;7.45;;;16.70;99.90;;;17.03;100.00;100725.38;5147751;28;20046;-72
2023/05/22 01:45:41;;;;;;;12.43;7.50;;;16.70;99.90;;;17.02;100.00;100720.97;5165212;28;20046;-71
2023/05/22 01:48:15;;;;;;;11.57;7.18;;;16.70;99.90;;;17.01;100.00;100723.56;5147457;28;20108;-72
2023/05/22 01:50:51;;;;;;;14.30;7.72;;;16.70;99.90;;;16.99;100.00;100722.69;5165136;28;20447;-71
2023/05/22 01:53:33;;;;;;;13.38;7.28;;;16.70;99.90;;;16.96;100.00;100726.19;5158118;28;20082;-71
2023/05/22 01:56:14;;;;;;;13.80;7.32;;;16.60;99.90;;;16.95;100.00;100718.25;5147257;28;20463;-71
2023/05/22 01:58:54;;;;;;;12.88;7.20;;;16.60;99.90;;;16.93;100.00;100723.50;5146885;28;20061;-71
2023/05/22 02:01:28;;;;;;;12.80;7.60;;;16.60;99.90;;;16.91;100.00;100719.13;5147553;28;20040;-72
2023/05/22 02:04:04;;;;;;;13.10;7.50;;;16.60;99.90;;;16.90;100.00;100718.25;5164429;28;20054;-70
2023/05/22 02:06:38;;;;;;;14.52;7.68;;;16.60;99.90;;;16.89;100.00;100718.19;5147486;28;20042;-70
2023/05/22 02:09:10;;;;;;;11.43;6.85;;;16.60;99.90;;;16.88;100.00;100714.69;5161396;28;20034;-72
2023/05/22 02:11:44;;;;;;;14.23;8.48;;;16.60;99.90;;;16.87;100.00;100712.06;5146725;28;20046;-71
2023/05/22 02:14:17;;;;;;;13.85;8.25;;;16.60;99.90;;;16.87;100.00;100712.94;5147147;28;20161;-70
2023/05/22 02:16:49;;;;;;;14.80;8.55;;;16.60;99.90;;;16.86;100.00;100719.06;5146891;28;20145;-70
2023/05/22 02:19:23;;;;;;;14.98;8.15;;;16.60;99.90;;;16.87;100.00;100712.94;5147071;28;20053;-71
2023/05/22 02:21:55;;;;;;;14.55;8.10;;;16.60;99.90;;;16.90;100.00;100712.97;5147036;28;20046;-71
2023/05/22 02:24:27;;;;;;;13.73;8.00;;;16.60;99.90;;;16.90;100.00;100715.59;5147196;28;20052;-71
2023/05/22 02:27:00;;;;;;;18.10;10.65;;;16.60;99.90;;;16.89;100.00;100716.47;5146851;28;20231;-71
2023/05/22 02:29:32;;;;;;;19.48;10.80;;;16.60;99.90;;;16.88;100.00;100713.81;5163942;28;20050;-71
2023/05/22 02:32:06;;;;;;;17.90;9.38;;;16.60;99.90;;;16.88;100.00;100709.44;5162178;28;20050;-71
2023/05/22 02:34:39;;;;;;;15.23;8.52;;;16.60;99.90;;;16.87;100.00;100712.06;5146425;28;20137;-71
2023/05/22 02:37:12;;;;;;;15.32;8.45;;;16.60;99.90;;;16.85;100.00;100708.53;5146416;28;20085;-72
2023/05/22 02:39:44;;;;;;;15.40;8.50;;;16.60;99.90;;;16.83;100.00;100705.03;5163498;28;20120;-70
2023/05/22 02:42:16;;;;;;;15.80;8.88;;;16.50;99.90;;;16.79;100.00;100698.84;5146454;28;20042;-72
2023/05/22 02:44:48;;;;;;;15.10;8.60;;;16.50;99.90;;;16.75;100.00;100699.66;5146315;28;20137;-69
2023/05/22 02:47:21;;;;;;;14.45;8.00;;;16.40;99.90;;;16.72;100.00;100707.56;5147095;28;20057;-68
2023/05/22 02:49:56;;;;;;;12.93;7.05;;;16.40;99.90;;;16.67;100.00;100702.22;5147430;28;20132;-67
2023/05/22 02:52:29;;;;;;;13.48;7.43;;;16.40;99.90;;;16.64;100.00;100709.22;5164613;28;20035;-69
2023/05/22 02:55:01;;;;;;;12.38;6.82;;;16.40;99.90;;;16.60;100.00;100700.41;5163854;28;20069;-70
2023/05/22 02:57:34;;;;;;;13.57;7.32;;;16.30;99.90;;;16.58;100.00;100701.25;5146609;28;20042;-70
2023/05/22 03:00:10;;;;;;;13.40;7.65;;;16.30;99.90;;;16.55;100.00;100702.09;5145206;28;20038;-70
2023/05/22 03:02:42;;;;;;;15.43;7.53;;;16.30;99.90;;;16.51;100.00;100698.56;5146770;28;20043;-69
2023/05/22 03:05:16;;;;;;;13.98;7.47;;;16.20;99.90;;;16.48;100.00;100693.28;5143119;28;20050;-69
2023/05/22 03:07:48;;;;;;;13.07;7.60;;;16.20;99.90;;;16.47;100.00;100690.63;5142159;28;20401;-69
2023/05/22 03:10:20;;;;;;;11.77;6.72;;;16.20;99.90;;;16.46;100.00;100694.13;5157962;28;20396;-70
2023/05/22 03:12:52;;;;;;;11.85;7.07;;;16.20;99.90;;;16.43;100.00;100700.25;5143264;28;20133;-71
2023/05/22 03:15:25;;;;;;;11.50;6.72;;;16.20;99.90;;;16.42;100.00;100703.72;5146783;28;20042;-70
2023/05/22 03:18:02;;;;;;;12.32;7.10;;;16.10;99.90;;;16.42;100.00;100703.72;5146107;28;20050;-69
2023/05/22 03:20:35;;;;;;;11.82;6.47;;;16.10;99.90;;;16.40;100.00;100700.22;5146060;28;20046;-70
2023/05/22 03:23:08;;;;;;;12.85;7.38;;;16.10;99.90;;;16.38;100.00;100694.06;5146103;28;20053;-69
2023/05/22 03:25:40;;;;;;;13.85;7.25;;;16.10;99.90;;;16.34;100.00;100700.16;5146412;28;20038;-69
2023/05/22 03:28:12;;;;;;;12.43;7.18;;;16.10;99.90;;;16.31;100.00;100700.13;5146000;28;20464;-70
2023/05/22 03:30:46;;;;;;;13.43;7.22;;;16.00;99.90;;;16.29;100.00;100694.84;5145760;28;20043;-69
2023/05/22 03:33:26;;;;;;;11.02;6.43;;;16.00;99.90;;;16.32;100.00;100698.38;5145899;28;20050;-71
2023/05/22 03:36:00;;;;;;;15.10;8.07;;;16.00;99.90;;;16.32;100.00;100695.75;5146094;28;20510;-69
2023/05/22 03:38:32;;;;;;;13.45;7.53;;;16.00;99.90;;;16.34;100.00;100697.53;5145886;28;20207;-68
2023/05/22 03:41:04;;;;;;;14.35;7.97;;;16.10;99.90;;;16.34;100.00;100696.66;5145645;28;20042;-70
2023/05/22 03:43:36;;;;;;;13.27;7.68;;;16.00;99.90;;;16.32;100.00;100701.91;5146219;28;20049;-70
2023/05/22 03:46:09;;;;;;;13.20;7.25;;;16.10;99.90;;;16.35;100.00;100704.53;5145964;28;20066;-69
2023/05/22 03:48:41;;;;;;;13.85;7.57;;;16.10;99.90;;;16.34;100.00;100705.41;5145337;28;20069;-70
2023/05/22 03:51:15;;;;;;;13.82;7.55;;;16.00;99.90;;;16.34;100.00;100704.53;5145872;28;20093;-69
2023/05/22 03:53:47;;;;;;;14.15;7.72;;;16.00;99.90;;;16.32;100.00;100704.53;5145249;28;20104;-70
2023/05/22 03:56:19;;;;;;;13.52;7.47;;;16.00;99.90;;;16.33;100.00;100715.94;5145673;28;20101;-70
2023/05/22 03:58:53;;;;;;;14.45;7.75;;;16.00;99.90;;;16.35;100.00;100711.56;5145169;28;20518;-69
2023/05/22 04:01:28;;;;;;;15.65;7.95;;;16.00;99.90;;;16.36;100.00;100714.19;5162938;28;20058;-70
2023/05/22 04:04:04;;;;;;;;;;;16.10;99.90;;;16.36;100.00;100702.78;5145690;28;20054;-69
2023/05/22 04:06:41;;;;;;;15.20;8.38;;;16.10;99.90;;;16.35;100.00;100708.94;5162952;28;19969;-69
2023/05/22 04:09:15;;;;;;;14.60;7.90;;;16.10;99.90;;;16.30;100.00;100708.91;5161254;28;20046;-71
2023/05/22 04:11:47;;;;;;;14.55;7.65;;;16.00;99.90;;;16.30;100.00;100714.16;5149378;28;20053;-69
2023/05/22 04:14:19;;;;;;;14.90;8.20;;;16.00;99.90;;;16.28;100.00;100715.88;5156280;28;20050;-70
2023/05/22 04:16:51;;;;;;;15.25;7.93;;;16.00;99.90;;;16.27;100.00;100722.00;5156819;28;20250;-70
2023/05/22 04:19:23;;;;;;;14.70;7.40;;;16.00;99.90;;;16.27;100.00;100714.13;5151996;28;20348;-69
2023/05/22 04:21:58;;;;;;;13.13;7.20;;;16.00;99.90;;;16.27;100.00;100719.38;5151985;28;20038;-69
2023/05/22 04:24:30;;;;;;;14.43;7.43;;;16.00;99.90;;;16.31;100.00;100728.19;5169792;28;20562;-70
2023/05/22 04:27:05;;;;;;;13.02;7.82;;;16.00;99.90;;;16.31;100.00;100717.69;5169407;28;20042;-70
2023/05/22 04:29:40;;;;;;;14.38;8.13;;;16.10;99.90;;;16.32;100.00;100722.94;5152006;28;20035;-70
2023/05/22 04:32:16;;;;;;;15.10;8.63;;;16.00;99.90;;;16.33;100.00;100724.69;5144314;28;20077;-69
2023/05/22 04:34:50;;;;;;;13.27;7.47;;;16.00;99.90;;;16.35;100.00;100729.97;5161748;28;20046;-69
2023/05/22 04:37:25;;;;;;;15.13;8.35;;;16.00;99.90;;;16.35;100.00;100733.47;5163860;28;20420;-70
2023/05/22 04:40:01;;;;;;;14.63;7.90;;;16.10;99.90;;;16.38;100.00;100738.78;5148312;28;20525;-70
2023/05/22 04:42:34;;;;;;;13.88;7.65;;;16.10;99.90;;;16.39;100.00;100739.66;5152193;28;20042;-70
2023/05/22 04:45:07;;;;;;;15.60;8.82;;;16.10;99.90;;;16.39;100.00;100745.81;5169217;28;20046;-69
2023/05/22 04:47:41;;;;;;;16.98;9.48;;;16.10;99.90;;;16.39;100.00;100739.66;5169566;28;20048;-70
2023/05/22 04:50:15;;;;;;;15.63;8.85;;;16.10;99.90;;;16.42;100.00;100745.81;5169138;28;20038;-70
2023/05/22 04:52:48;;;;;;;17.15;8.75;;;16.10;99.90;;;16.47;100.00;100748.50;5151764;28;20049;-69
2023/05/22 04:55:23;;;;;;;20.50;9.15;;;16.10;99.90;;;16.52;100.00;100752.97;5144362;28;20561;-69
2023/05/22 04:57:56;;;;;;;16.17;9.45;;;16.20;99.90;;;16.57;100.00;100742.50;5151873;28;20602;-70
2023/05/22 05:00:29;;;;;;;18.05;9.98;;;16.30;99.90;;;16.64;100.00;100746.94;5151663;28;20085;-69
2023/05/22 05:03:02;;;;;;;20.40;10.15;;;16.30;99.90;;;16.71;100.00;100742.66;5169012;28;20066;-70
2023/05/22 05:05:34;;;;;;;18.45;10.13;;;16.40;99.90;;;16.79;100.00;100751.47;5164148;28;20043;-70
2023/05/22 05:08:08;;;;;;;18.60;9.82;;;16.50;99.90;;;16.87;100.00;100754.19;5149797;28;20042;-69
2023/05/22 05:10:41;;;;;;;21.92;11.07;;;16.60;99.90;;;16.96;100.00;100749.88;5152003;28;20046;-69
2023/05/22 05:13:13;;;;;;;20.95;11.27;;;16.60;99.90;;;17.05;100.00;100747.31;5166764;28;20050;-70
2023/05/22 05:15:45;;;;;;;21.55;11.85;;;16.70;99.90;;;17.18;100.00;100744.78;5164259;28;20384;-70
2023/05/22 05:18:18;;;;;;;23.25;11.77;;;16.80;99.90;;;17.29;100.00;100745.75;5151262;28;20414;-69
2023/05/22 05:20:50;;;;;;;23.75;13.48;;;17.00;99.90;;;17.40;100.00;100754.56;5151065;28;20057;-69
2023/05/22 05:23:24;;;;;;;25.60;12.70;;;17.00;99.90;;;17.51;100.00;100752.88;5141337;28;20046;-70
2023/05/22 05:25:56;;;;;;;24.40;12.85;;;17.20;99.90;;;17.61;100.00;100760.00;5161411;28;20046;-70
2023/05/22 05:28:28;;;;;;;27.10;13.07;;;17.20;99.90;;;17.69;100.00;100753.88;5148266;28;20042;-69
2023/05/22 05:31:01;;;;;;;22.95;12.68;;;17.30;99.90;;;17.76;100.00;100756.56;5156010;28;20054;-70
2023/05/22 05:33:57;;;;;;;22.70;12.20;;;17.40;99.90;;;17.82;100.00;100755.72;5162309;28;20512;-69
2023/05/22 05:36:52;;;;;;;22.00;11.95;;;17.50;99.90;;;17.83;100.00;100757.50;5152546;28;20058;-69
2023/05/22 05:39:27;;;;;;;21.63;11.90;;;17.50;99.90;;;17.84;100.00;100760.13;5147820;28;20495;-70
2023/05/22 05:42:00;;;;;;;20.63;11.30;;;17.50;99.90;;;17.85;100.00;100758.38;5147740;28;20038;-70
2023/05/22 05:44:32;;;;;;;19.33;11.05;;;17.50;99.90;;;17.87;100.00;100761.91;5160158;28;20480;-70
2023/05/22 05:47:05;;;;;;;21.02;11.15;;;17.50;99.90;;;17.93;100.00;100763.66;5145775;28;20046;-70
2023/05/22 05:49:38;;;;;;;20.13;10.70;;;17.60;99.90;;;17.97;100.00;100765.44;5150123;28;20531;-70
2023/05/22 05:52:12;;;;;;;25.48;13.60;;;17.60;99.90;;;18.05;100.00;100763.72;5147210;28;20074;-69
2023/05/22 05:54:46;;;;;;;24.63;12.93;;;17.70;99.90;;;18.09;100.00;100765.50;5147628;28;20565;-70
2023/05/22 05:57:22;;;;;;;27.80;14.60;;;17.70;99.90;;;18.08;100.00;100764.63;5148146;28;20267;-70
2023/05/22 05:59:55;;;;;;;22.17;12.35;;;17.70;99.90;;;18.06;100.00;100766.38;5147055;28;20256;-70
2023/05/22 06:02:53;;;;;;;24.25;13.40;;;17.70;99.90;;;18.08;100.00;100772.53;5165027;28;20062;-59
2023/05/22 06:05:54;;;;;;;;;;;17.70;99.90;;;18.08;100.00;100764.63;5147408;28;20214;-59
2023/05/22 06:08:33;;;;;;;30.55;15.38;;;17.70;99.90;;;18.12;100.00;100776.06;5146681;28;19929;-60
2023/05/22 06:11:06;;;;;;;29.38;15.63;;;17.70;99.90;;;18.12;100.00;100781.34;5154930;28;20038;-59
2023/05/22 06:13:43;;;;;;;25.40;13.13;;;17.70;99.90;;;18.10;100.00;100777.81;5146857;28;20050;-60
2023/05/22 06:16:17;;;;;;;25.65;12.57;;;17.80;99.90;;;18.10;100.00;100777.81;5162225;28;20054;-59
2023/05/22 06:18:51;;;;;;;21.48;10.98;;;17.80;99.90;;;18.13;100.00;100778.72;5142017;28;20058;-59
2023/05/22 06:21:24;;;;;;;27.70;13.15;;;17.80;99.90;;;18.18;100.00;100779.59;5151096;28;20047;-59
2023/05/22 06:23:56;;;;;;;22.48;11.50;;;17.80;99.90;;;18.21;100.00;100783.13;5143204;28;20043;-60
2023/05/22 06:26:30;;;;;;;34.15;16.33;;;17.80;99.90;;;18.20;100.00;100784.91;5147141;28;20050;-60
2023/05/22 06:29:02;;;;;;;31.92;15.90;;;17.90;99.90;;;18.13;100.00;100784.00;5164042;28;20082;-60
2023/05/22 06:31:38;;;;;;;34.15;15.90;;;17.80;99.90;;;18.09;100.00;100790.13;5146919;28;20315;-60
2023/05/22 06:34:11;;;;;;;27.83;14.40;;;17.80;99.90;;;18.09;100.00;100802.44;5145269;28;20051;-59
2023/05/22 06:36:44;;;;;;;29.45;14.80;;;17.70;99.90;;;18.08;100.00;100796.28;5163745;28;20055;-59
2023/05/22 06:39:17;;;;;;;39.50;16.95;;;17.70;99.90;;;18.10;100.00;100793.66;5145672;28;20144;-60
2023/05/22 06:42:14;;;;;;;25.20;13.00;;;17.70;99.90;;;18.13;100.00;100794.56;5143639;28;20137;-60
2023/05/22 06:45:18;;;;;;;31.45;14.52;;;17.80;99.90;;;18.18;100.00;100797.19;5163145;28;20046;-60
2023/05/22 06:48:13;;;;;;;17.92;9.68;;;17.80;99.90;;;18.17;100.00;100796.31;5162870;28;20050;-63
2023/05/22 06:50:58;;;;;;;23.63;10.75;;;17.80;99.90;;;18.25;100.00;100804.25;5145258;28;20038;-59
2023/05/22 06:53:31;;;;;;;33.28;14.68;;;17.80;99.90;;;18.26;100.00;100808.66;5146217;28;20089;-60
2023/05/22 06:56:04;;;;;;;26.48;13.32;;;17.90;99.90;;;18.28;100.00;100811.31;5138236;28;20050;-58
2023/05/22 06:58:53;;;;;;;28.25;13.63;;;17.90;99.90;;;18.33;100.00;100806.94;5145849;28;20054;-58
2023/05/22 07:01:29;;;;;;;24.00;11.82;;;18.00;99.90;;;18.40;100.00;100808.72;5150449;28;20133;-58
2023/05/22 07:04:12;;;;;;;32.70;15.80;;;18.00;99.90;;;18.45;100.00;100812.22;5143810;28;20077;-57
2023/05/22 07:07:10;;;;;;;29.42;14.82;;;18.10;99.90;;;18.47;100.00;100818.41;5140073;28;20515;-58
2023/05/22 07:09:43;;;;;;;37.10;17.50;;;18.10;99.90;;;18.50;100.00;100821.03;5145115;28;20137;-58
2023/05/22 07:12:15;;;;;;;33.08;15.73;;;18.20;99.90;;;18.50;100.00;100821.03;5145339;28;20057;-58
2023/05/22 07:14:48;;;;;;;34.60;16.10;;;18.10;99.90;;;18.49;100.00;100824.56;5145538;28;20069;-59
2023/05/22 07:17:21;;;;;;;37.88;18.13;;;18.20;99.90;;;18.47;100.00;100828.09;5145290;28;20094;-59
2023/05/22 07:19:55;;;;;;;37.47;18.08;;;18.10;99.90;;;18.45;100.00;100820.13;5144997;28;20141;-58
2023/05/22 07:22:27;;;;;;;41.42;19.40;;;18.10;99.90;;;18.49;100.00;100832.47;5142380;28;20047;-59
2023/05/22 07:25:00;;;;;;;36.00;18.15;;;18.10;99.90;;;18.51;100.00;100836.00;5141683;28;20047;-59
2023/05/22 07:27:37;;;;;;;34.90;17.05;;;18.20;99.90;;;18.58;100.00;100831.63;5163408;28;20343;-58
2023/05/22 07:30:12;;;;;;;32.63;16.33;;;18.20;99.90;;;18.65;100.00;100830.78;5159370;28;20058;-59
2023/05/22 07:32:45;;;;;;;32.35;15.80;;;18.20;99.90;;;18.72;100.00;100831.72;5162672;28;20042;-59
2023/05/22 07:35:18;;;;;;;33.72;16.42;;;18.30;99.90;;;18.80;100.00;100832.59;5144800;28;20054;-58
2023/05/22 07:37:50;;;;;;;30.70;15.90;;;18.30;99.90;;;18.90;100.00;100837.00;5162748;28;20046;-58
2023/05/22 07:40:22;;;;;;;40.05;19.00;;;18.40;99.90;;;18.97;100.00;100833.47;5136873;28;20587;-59
2023/05/22 07:42:54;;;;;;;39.13;19.00;;;18.50;99.90;;;19.02;100.00;100834.38;5162647;28;20082;-59
2023/05/22 07:45:28;;;;;;;32.75;16.42;;;18.50;99.90;;;19.12;100.00;100827.34;5144748;28;20479;-59
2023/05/22 07:48:07;;;;;;;39.60;17.67;;;18.60;99.90;;;19.29;100.00;100835.25;5145078;28;20047;-60
2023/05/22 07:50:44;;;;;;;;;;;18.70;99.90;;;19.32;100.00;100830.00;5145129;28;20519;-59
2023/05/22 07:53:16;;;;;;;36.03;17.05;;;18.80;99.90;;;19.37;100.00;100838.81;5144606;28;19960;-58
2023/05/22 07:55:50;;;;;;;34.55;16.15;;;18.90;99.90;;;19.42;100.00;100837.91;5144998;28;20538;-58
2023/05/22 07:58:23;;;;;;;36.05;18.10;;;18.90;99.90;;;19.50;100.00;100840.56;5144962;28;20057;-59
2023/05/22 08:00:57;;;;;;;38.03;19.17;;;19.00;99.90;;;19.50;100.00;100846.72;5145023;28;20056;-59
2023/05/22 08:03:29;;;;;;;36.38;18.10;;;19.00;99.90;;;19.57;100.00;100844.94;5154330;28;20046;-59
2023/05/22 08:06:02;;;;;;;33.28;15.80;;;19.00;99.90;;;19.69;100.00;100844.97;5146206;28;20042;-60
2023/05/22 08:08:35;;;;;;;35.15;17.17;;;19.10;99.90;;;19.83;100.00;100854.66;5154225;28;20050;-59
2023/05/22 08:11:07;;;;;;;31.00;15.75;;;19.20;99.90;;;19.89;100.00;100850.22;5154268;28;20046;-58
2023/05/22 08:13:39;;;;;;;34.20;16.95;;;19.30;99.90;;;20.02;100.00;100845.78;5131752;28;20527;-60
2023/05/22 08:16:12;;;;;;;31.23;15.57;;;19.40;99.90;;;20.16;100.00;100849.25;5159820;28;20125;-58
2023/05/22 08:18:44;;;;;;;29.98;15.50;;;19.50;99.90;;;20.28;100.00;100846.56;5161882;28;20075;-60
2023/05/22 08:21:16;;;;;;;31.88;15.85;;;19.70;99.90;;;20.37;100.00;100847.41;5162355;28;20064;-59
2023/05/22 08:23:48;;;;;;;31.63;16.08;;;19.80;99.90;;;20.42;100.00;100857.09;5162224;28;20503;-60
2023/05/22 08:26:22;;;;;;;27.95;15.32;;;19.80;99.90;;;20.41;100.00;100847.38;5162494;28;20049;-59
2023/05/22 08:28:54;;;;;;;30.23;16.35;;;19.80;99.90;;;20.38;100.00;100850.03;5161823;28;20046;-58
2023/05/22 08:31:28;;;;;;;28.95;15.35;;;19.80;99.90;;;20.36;100.00;100853.59;5177978;23;20049;-64
2023/05/22 08:34:03;;;;;;;26.52;14.45;;;19.80;99.90;;;20.34;100.00;100850.91;5182125;28;20069;-62
2023/05/22 08:36:35;;;;;;;31.85;15.75;;;19.80;99.90;;;20.40;100.00;100848.25;5174906;28;20041;-61
2023/05/22 08:39:10;;;;;;;29.35;16.55;;;19.80;99.90;;;20.55;100.00;100847.34;5174337;28;20082;-62
2023/05/22 08:41:43;;;;;;;28.75;16.23;;;19.90;99.90;;;20.66;100.00;100845.50;5182942;28;20038;-61
2023/05/22 08:44:15;;;;;;;31.80;15.98;;;20.00;99.90;;;20.84;100.00;100849.81;5180747;28;20399;-61
2023/05/22 08:46:49;;;;;;;30.90;16.10;;;20.10;99.90;;;21.08;100.00;100848.78;5177062;28;20401;-61
2023/05/22 08:49:22;;;;;;;33.92;16.83;;;20.30;99.90;;;21.23;100.00;100851.31;5196321;28;20128;-62
2023/05/22 08:52:02;;;;;;;34.17;17.38;;;20.40;99.90;;;21.25;100.00;100852.16;5177933;28;20121;-61
2023/05/22 08:54:41;;;;;;;34.28;17.67;;;20.50;99.90;;;21.30;100.00;100853.03;5165654;28;20415;-62
2023/05/22 08:57:13;;;;;;;35.85;17.67;;;20.60;99.90;;;21.36;100.00;100850.34;5182914;28;20406;-61
2023/05/22 08:59:47;;;;;;;34.17;18.13;;;20.60;99.90;;;21.42;100.00;100853.84;5186447;28;20574;-61
2023/05/22 09:02:21;;;;;;;32.83;16.50;;;20.70;99.90;;;21.44;100.00;100847.63;5186472;28;20041;-62
2023/05/22 09:04:53;;;;;;;34.30;16.70;;;20.80;99.90;;;21.44;100.00;100849.38;5186706;28;20042;-62
2023/05/22 09:07:26;;;;;;;34.50;17.77;;;20.80;99.90;;;21.55;100.00;100855.47;5198014;28;20052;-62
2023/05/22 09:09:58;;;;;;;32.85;17.92;;;20.80;99.90;;;21.57;100.00;100854.56;5207256;28;20048;-61
2023/05/22 09:12:31;;;;;;;35.92;19.75;;;20.90;99.90;;;21.51;100.00;100853.75;5194962;28;20042;-61
2023/05/22 09:15:09;;;;;;;35.58;18.60;;;20.90;99.90;;;21.55;100.00;100856.34;5186285;28;20486;-62
2023/05/22 09:17:43;;;;;;;44.20;22.85;;;20.90;99.90;;;21.58;100.00;100861.66;5186277;28;20049;-62
2023/05/22 09:20:15;;;;;;;35.35;18.95;;;20.90;99.90;;;21.53;100.00;100857.28;5186305;28;20057;-62
2023/05/22 09:22:47;;;;;;;36.97;19.67;;;20.90;99.90;;;21.45;100.00;100865.28;5186347;28;20108;-61
2023/05/22 09:25:20;;;;;;;37.35;19.83;;;20.90;99.90;;;21.35;100.00;100851.22;5185982;28;20048;-62
2023/05/22 09:27:53;;;;;;;33.72;18.92;;;20.80;99.90;;;21.37;100.00;100860.03;5186332;28;20053;-62
2023/05/22 09:30:25;;;;;;;36.42;18.75;;;20.80;99.90;;;21.46;100.00;100861.75;5186223;28;20502;-62
2023/05/22 09:32:59;;;;;;;34.22;18.75;;;20.90;99.90;;;21.52;100.00;100863.47;5185938;28;20052;-62
2023/05/22 09:35:32;;;;;;;41.10;20.88;;;20.90;99.90;;;21.47;100.00;100867.94;5186125;28;20100;-62
2023/05/22 09:38:04;;;;;;;37.92;20.13;;;20.90;99.90;;;21.46;100.00;100856.47;5186329;28;20038;-62
2023/05/22 09:40:39;;;;;;;39.85;20.95;;;20.90;99.90;;;21.49;100.00;100872.31;5186147;28;20050;-62
2023/05/22 09:43:11;;;;;;;;;;;20.90;99.90;;;21.51;100.00;100862.56;5186363;28;20407;-62
2023/05/22 09:45:43;;;;;;;42.15;21.52;;;21.00;99.90;;;21.55;100.00;100871.41;5186200;28;19922;-63
2023/05/22 09:48:18;;;;;;;43.05;22.30;;;21.00;99.90;;;21.64;100.00;100871.31;5185716;28;20045;-63
2023/05/22 09:50:53;;;;;;;41.33;20.83;;;21.00;99.90;;;21.74;100.00;100866.81;5185441;28;20073;-62
2023/05/22 09:53:28;;;;;;;40.13;21.10;;;21.10;99.90;;;21.74;100.00;100870.34;5185648;28;20049;-62
2023/05/22 09:56:02;;;;;;;46.33;23.63;;;21.20;99.90;;;21.67;100.00;100865.97;5185625;28;20065;-62
2023/05/22 09:58:38;;;;;;;39.65;20.65;;;21.10;99.90;;;21.61;100.00;100876.66;5185617;28;20406;-63
2023/05/22 10:01:12;;;;;;;37.13;20.02;;;21.10;99.90;;;21.58;100.00;100871.34;5167889;28;20045;-61
2023/05/22 10:03:49;;;;;;;38.50;19.33;;;21.00;99.90;;;21.57;100.00;100870.47;5185511;28;20100;-62
2023/05/22 10:06:25;;;;;;;42.53;20.13;;;21.10;99.90;;;21.57;100.00;100870.47;5185556;28;20042;-62
2023/05/22 10:09:03;;;;;;;38.55;20.40;;;21.10;99.90;;;21.55;100.00;100872.28;5185388;28;20100;-62
2023/05/22 10:11:36;;;;;;;42.33;21.85;;;21.10;99.90;;;21.62;100.00;100870.44;5185612;28;20073;-62
2023/05/22 10:14:09;;;;;;;36.72;19.73;;;21.10;99.90;;;21.68;100.00;100878.34;5167540;28;20042;-62
2023/05/22 10:16:43;;;;;;;39.25;20.70;;;21.10;99.90;;;21.68;100.00;100881.00;5185142;28;20050;-62
2023/05/22 10:19:17;;;;;;;35.50;19.42;;;21.10;99.90;;;21.68;100.00;100878.34;5185322;28;20053;-62
2023/05/22 10:21:50;;;;;;;37.78;20.08;;;21.10;99.90;;;21.75;100.00;100882.69;5185164;28;20057;-61
2023/05/22 10:24:23;;;;;;;43.97;23.23;;;21.20;99.90;;;21.78;100.00;100873.81;5185139;28;20053;-63
2023/05/22 10:26:56;;;;;;;41.55;21.75;;;21.20;99.90;;;21.84;100.00;100877.31;5185065;28;20045;-61
2023/05/22 10:29:37;;;;;;;40.85;20.90;;;21.20;99.90;;;21.88;100.00;100876.38;5184950;28;20052;-62
2023/05/22 10:32:14;;;;;;;;;;;21.30;99.90;;;21.86;100.00;100879.94;5185176;28;20092;-63